sensor_id;sensor_type;location;lat;lon;timestamp;temperature;humidity
69938;DHT22;57248;47.320;15.998;2022-11-15T00:00:59;7.48;96.51
69938;DHT22;57248;47.320;15.998;2022-11-15T00:03:51;7.45;96.96
69938;DHT22;57248;47.320;15.998;2022-11-15T00:06:41;7.42;96.93
69938;DHT22;57248;47.320;15.998;2022-11-15T00:09:32;7.38;97.40
69938;DHT22;57248;47.320;15.998;2022-11-15T00:12:23;7.47;96.67
69938;DHT22;57248;47.320;15.998;2022-11-15T00:15:15;7.44;96.89
69938;DHT22;57248;47.320;15.998;2022-11-15T00:18:10;7.32;97.43
69938;DHT22;57248;47.320;15.998;2022-11-15T00:21:10;7.30;97.51
69938;DHT22;57248;47.320;15.998;2022-11-15T00:24:01;7.27;97.75
69938;DHT22;57248;47.320;15.998;2022-11-15T00:26:53;7.32;97.04
69938;DHT22;57248;47.320;15.998;2022-11-15T00:29:43;7.24;97.64
69938;DHT22;57248;47.320;15.998;2022-11-15T00:32:35;7.30;97.45
69938;DHT22;57248;47.320;15.998;2022-11-15T00:35:25;7.35;97.02
69938;DHT22;57248;47.320;15.998;2022-11-15T00:38:18;7.40;97.12
69938;DHT22;57248;47.320;15.998;2022-11-15T00:41:15;7.32;97.52
69938;DHT22;57248;47.320;15.998;2022-11-15T00:44:05;7.44;97.10
69938;DHT22;57248;47.320;15.998;2022-11-15T00:46:57;7.41;96.99
69938;DHT22;57248;47.320;15.998;2022-11-15T00:49:48;7.44;96.67
69938;DHT22;57248;47.320;15.998;2022-11-15T00:52:39;7.44;97.14
69938;DHT22;57248;47.320;15.998;2022-11-15T00:55:29;7.34;97.53
69938;DHT22;57248;47.320;15.998;2022-11-15T00:58:21;7.25;98.60
69938;DHT22;57248;47.320;15.998;2022-11-15T01:01:13;7.21;98.85
69938;DHT22;57248;47.320;15.998;2022-11-15T01:04:04;7.18;98.89
69938;DHT22;57248;47.320;15.998;2022-11-15T01:06:56;7.15;99.18
69938;DHT22;57248;47.320;15.998;2022-11-15T01:09:46;7.17;99.47
69938;DHT22;57248;47.320;15.998;2022-11-15T01:12:37;7.18;99.27
69938;DHT22;57248;47.320;15.998;2022-11-15T01:15:29;7.20;98.97
69938;DHT22;57248;47.320;15.998;2022-11-15T01:18:19;7.28;98.61
69938;DHT22;57248;47.320;15.998;2022-11-15T01:21:13;7.28;98.51
69938;DHT22;57248;47.320;15.998;2022-11-15T01:24:05;7.40;98.09
69938;DHT22;57248;47.320;15.998;2022-11-15T01:26:55;7.35;98.17
69938;DHT22;57248;47.320;15.998;2022-11-15T01:29:45;7.25;98.03
69938;DHT22;57248;47.320;15.998;2022-11-15T01:32:36;7.32;97.53
69938;DHT22;57248;47.320;15.998;2022-11-15T01:35:27;7.28;97.43
69938;DHT22;57248;47.320;15.998;2022-11-15T01:38:18;7.25;97.33
69938;DHT22;57248;47.320;15.998;2022-11-15T01:41:25;7.32;97.02
69938;DHT22;57248;47.320;15.998;2022-11-15T01:47:28;7.30;96.89
69938;DHT22;57248;47.320;15.998;2022-11-15T01:50:26;7.30;96.94
69938;DHT22;57248;47.320;15.998;2022-11-15T01:53:21;7.34;96.75
69938;DHT22;57248;47.320;15.998;2022-11-15T01:56:18;7.30;96.89
69938;DHT22;57248;47.320;15.998;2022-11-15T01:59:11;7.34;96.78
69938;DHT22;57248;47.320;15.998;2022-11-15T02:02:03;7.32;96.74
69938;DHT22;57248;47.320;15.998;2022-11-15T02:04:53;7.27;97.15
69938;DHT22;57248;47.320;15.998;2022-11-15T02:07:45;7.30;97.03
69938;DHT22;57248;47.320;15.998;2022-11-15T02:10:36;7.21;97.35
69938;DHT22;57248;47.320;15.998;2022-11-15T02:13:27;7.24;97.23
69938;DHT22;57248;47.320;15.998;2022-11-15T02:31:55;7.04;97.82
69938;DHT22;57248;47.320;15.998;2022-11-15T02:35:09;7.11;97.54
69938;DHT22;57248;47.320;15.998;2022-11-15T02:38:22;7.04;97.61
69938;DHT22;57248;47.320;15.998;2022-11-15T02:41:45;7.04;97.91
69938;DHT22;57248;47.320;15.998;2022-11-15T02:44:42;7.03;97.87
69938;DHT22;57248;47.320;15.998;2022-11-15T02:47:41;6.93;98.33
69938;DHT22;57248;47.320;15.998;2022-11-15T02:50:33;7.03;98.20
69938;DHT22;57248;47.320;15.998;2022-11-15T02:53:25;7.13;97.49
69938;DHT22;57248;47.320;15.998;2022-11-15T02:56:15;7.15;97.41
69938;DHT22;57248;47.320;15.998;2022-11-15T03:08:29;7.17;97.40
69938;DHT22;57248;47.320;15.998;2022-11-15T03:11:22;7.01;98.36
69938;DHT22;57248;47.320;15.998;2022-11-15T03:14:26;7.11;98.02
69938;DHT22;57248;47.320;15.998;2022-11-15T03:17:30;7.08;98.12
69938;DHT22;57248;47.320;15.998;2022-11-15T03:20:24;7.18;97.59
69938;DHT22;57248;47.320;15.998;2022-11-15T03:23:17;7.11;98.02
69938;DHT22;57248;47.320;15.998;2022-11-15T03:26:12;7.11;98.12
69938;DHT22;57248;47.320;15.998;2022-11-15T03:29:18;7.15;97.83
69938;DHT22;57248;47.320;15.998;2022-11-15T03:32:14;7.08;98.09
69938;DHT22;57248;47.320;15.998;2022-11-15T03:35:14;7.10;98.14
69938;DHT22;57248;47.320;15.998;2022-11-15T03:38:25;7.14;97.54
69938;DHT22;57248;47.320;15.998;2022-11-15T03:41:24;7.23;97.66
69938;DHT22;57248;47.320;15.998;2022-11-15T03:50:22;7.14;98.03
69938;DHT22;57248;47.320;15.998;2022-11-15T03:53:12;7.18;98.02
69938;DHT22;57248;47.320;15.998;2022-11-15T03:56:04;7.20;98.03
69938;DHT22;57248;47.320;15.998;2022-11-15T03:58:55;7.21;98.30
69938;DHT22;57248;47.320;15.998;2022-11-15T04:01:46;7.11;98.78
69938;DHT22;57248;47.320;15.998;2022-11-15T04:04:37;7.18;98.14
69938;DHT22;57248;47.320;15.998;2022-11-15T04:07:28;7.23;97.97
69938;DHT22;57248;47.320;15.998;2022-11-15T04:10:19;7.20;97.90
69938;DHT22;57248;47.320;15.998;2022-11-15T04:13:10;7.20;98.45
69938;DHT22;57248;47.320;15.998;2022-11-15T04:16:01;7.20;98.68
69938;DHT22;57248;47.320;15.998;2022-11-15T04:18:52;7.11;98.88
69938;DHT22;57248;47.320;15.998;2022-11-15T04:22:03;7.21;98.36
69938;DHT22;57248;47.320;15.998;2022-11-15T04:25:13;7.17;98.76
69938;DHT22;57248;47.320;15.998;2022-11-15T04:28:04;7.01;99.74
69938;DHT22;57248;47.320;15.998;2022-11-15T04:30:55;6.99;99.97
69938;DHT22;57248;47.320;15.998;2022-11-15T04:33:45;6.92;99.99
69938;DHT22;57248;47.320;15.998;2022-11-15T04:36:37;6.90;99.99
69938;DHT22;57248;47.320;15.998;2022-11-15T04:39:53;6.83;99.99
69938;DHT22;57248;47.320;15.998;2022-11-15T04:42:43;6.89;99.99
69938;DHT22;57248;47.320;15.998;2022-11-15T04:45:35;6.97;99.99
69938;DHT22;57248;47.320;15.998;2022-11-15T04:48:26;7.00;99.85
69938;DHT22;57248;47.320;15.998;2022-11-15T04:51:17;7.08;99.24
69938;DHT22;57248;47.320;15.998;2022-11-15T04:54:07;7.14;98.99
69938;DHT22;57248;47.320;15.998;2022-11-15T04:56:58;7.15;98.91
69938;DHT22;57248;47.320;15.998;2022-11-15T04:59:49;7.14;98.98
69938;DHT22;57248;47.320;15.998;2022-11-15T05:02:40;7.08;99.27
69938;DHT22;57248;47.320;15.998;2022-11-15T05:05:50;7.07;99.28
69938;DHT22;57248;47.320;15.998;2022-11-15T05:08:41;7.00;99.82
69938;DHT22;57248;47.320;15.998;2022-11-15T05:11:32;7.05;99.33
69938;DHT22;57248;47.320;15.998;2022-11-15T05:14:23;7.13;99.29
69938;DHT22;57248;47.320;15.998;2022-11-15T05:17:14;7.03;99.89
69938;DHT22;57248;47.320;15.998;2022-11-15T05:20:05;7.03;99.86
69938;DHT22;57248;47.320;15.998;2022-11-15T05:22:56;7.01;99.76
69938;DHT22;57248;47.320;15.998;2022-11-15T05:25:46;6.97;99.49
69938;DHT22;57248;47.320;15.998;2022-11-15T05:28:38;7.00;99.12
69938;DHT22;57248;47.320;15.998;2022-11-15T05:31:29;7.07;98.73
69938;DHT22;57248;47.320;15.998;2022-11-15T05:34:19;6.99;99.25
69938;DHT22;57248;47.320;15.998;2022-11-15T05:37:13;6.92;99.60
69938;DHT22;57248;47.320;15.998;2022-11-15T05:40:05;9.74;99.99
69938;DHT22;57248;47.320;15.998;2022-11-15T05:43:04;7.69;98.26
69938;DHT22;57248;47.320;15.998;2022-11-15T05:45:57;7.32;97.99
69938;DHT22;57248;47.320;15.998;2022-11-15T05:48:50;7.23;98.39
69938;DHT22;57248;47.320;15.998;2022-11-15T05:51:44;7.21;98.31
69938;DHT22;57248;47.320;15.998;2022-11-15T05:54:37;7.23;98.13
69938;DHT22;57248;47.320;15.998;2022-11-15T05:57:27;7.14;98.23
69938;DHT22;57248;47.320;15.998;2022-11-15T06:00:19;7.17;98.22
69938;DHT22;57248;47.320;15.998;2022-11-15T06:03:10;7.04;98.32
69938;DHT22;57248;47.320;15.998;2022-11-15T06:06:02;7.13;98.16
69938;DHT22;57248;47.320;15.998;2022-11-15T06:08:52;7.15;97.83
69938;DHT22;57248;47.320;15.998;2022-11-15T06:11:44;7.17;97.80
69938;DHT22;57248;47.320;15.998;2022-11-15T06:14:35;7.21;97.69
69938;DHT22;57248;47.320;15.998;2022-11-15T06:17:25;7.07;98.23
69938;DHT22;57248;47.320;15.998;2022-11-15T06:20:17;7.08;97.99
69938;DHT22;57248;47.320;15.998;2022-11-15T06:23:07;7.08;97.96
69938;DHT22;57248;47.320;15.998;2022-11-15T06:26:01;7.11;97.99
69938;DHT22;57248;47.320;15.998;2022-11-15T06:28:52;7.13;98.02
69938;DHT22;57248;47.320;15.998;2022-11-15T06:31:43;7.44;98.37
69938;DHT22;57248;47.320;15.998;2022-11-15T06:34:34;7.27;97.36
69938;DHT22;57248;47.320;15.998;2022-11-15T06:37:25;7.18;97.30
69938;DHT22;57248;47.320;15.998;2022-11-15T06:40:23;7.14;97.39
69938;DHT22;57248;47.320;15.998;2022-11-15T06:43:15;7.05;97.53
69938;DHT22;57248;47.320;15.998;2022-11-15T06:46:06;7.00;97.59
69938;DHT22;57248;47.320;15.998;2022-11-15T06:48:57;7.01;97.44
69938;DHT22;57248;47.320;15.998;2022-11-15T06:51:48;7.03;97.27
69938;DHT22;57248;47.320;15.998;2022-11-15T06:54:41;7.11;97.08
69938;DHT22;57248;47.320;15.998;2022-11-15T06:57:32;7.23;96.69
69938;DHT22;57248;47.320;15.998;2022-11-15T07:00:22;7.20;96.71
69938;DHT22;57248;47.320;15.998;2022-11-15T07:03:13;7.34;96.31
69938;DHT22;57248;47.320;15.998;2022-11-15T07:06:05;7.36;96.04
69938;DHT22;57248;47.320;15.998;2022-11-15T07:08:55;7.32;96.38
69938;DHT22;57248;47.320;15.998;2022-11-15T07:11:46;7.44;96.06
69938;DHT22;57248;47.320;15.998;2022-11-15T07:14:38;7.51;96.19
69938;DHT22;57248;47.320;15.998;2022-11-15T07:17:28;7.59;95.70
69938;DHT22;57248;47.320;15.998;2022-11-15T07:20:20;7.66;95.59
69938;DHT22;57248;47.320;15.998;2022-11-15T07:23:10;7.68;95.64
69938;DHT22;57248;47.320;15.998;2022-11-15T07:26:01;7.83;95.31
69938;DHT22;57248;47.320;15.998;2022-11-15T07:28:52;7.99;95.03
69938;DHT22;57248;47.320;15.998;2022-11-15T07:31:42;8.06;94.86
69938;DHT22;57248;47.320;15.998;2022-11-15T07:34:34;8.02;94.68
69938;DHT22;57248;47.320;15.998;2022-11-15T07:37:25;8.06;95.29
69938;DHT22;57248;47.320;15.998;2022-11-15T07:40:16;8.24;94.81
69938;DHT22;57248;47.320;15.998;2022-11-15T07:43:13;8.13;94.76
69938;DHT22;57248;47.320;15.998;2022-11-15T07:46:07;8.06;95.01
69938;DHT22;57248;47.320;15.998;2022-11-15T07:49:00;7.96;95.37
69938;DHT22;57248;47.320;15.998;2022-11-15T07:51:52;7.99;96.09
69938;DHT22;57248;47.320;15.998;2022-11-15T07:54:43;7.73;96.54
69938;DHT22;57248;47.320;15.998;2022-11-15T07:57:34;7.72;96.49
69938;DHT22;57248;47.320;15.998;2022-11-15T08:00:25;7.65;96.68
69938;DHT22;57248;47.320;15.998;2022-11-15T08:03:16;7.66;96.72
69938;DHT22;57248;47.320;15.998;2022-11-15T08:06:07;7.50;97.02
69938;DHT22;57248;47.320;15.998;2022-11-15T08:08:59;7.65;96.64
69938;DHT22;57248;47.320;15.998;2022-11-15T08:11:50;7.71;96.34
69938;DHT22;57248;47.320;15.998;2022-11-15T08:14:41;7.58;96.60
69938;DHT22;57248;47.320;15.998;2022-11-15T08:17:32;7.73;96.40
69938;DHT22;57248;47.320;15.998;2022-11-15T08:20:25;7.83;96.30
69938;DHT22;57248;47.320;15.998;2022-11-15T08:23:16;7.75;96.36
69938;DHT22;57248;47.320;15.998;2022-11-15T08:26:08;7.72;96.11
69938;DHT22;57248;47.320;15.998;2022-11-15T08:28:59;8.33;95.28
69938;DHT22;57248;47.320;15.998;2022-11-15T08:31:50;8.67;92.89
69938;DHT22;57248;47.320;15.998;2022-11-15T08:34:41;8.50;93.57
69938;DHT22;57248;47.320;15.998;2022-11-15T08:37:39;8.65;93.11
69938;DHT22;57248;47.320;15.998;2022-11-15T08:40:30;8.75;92.56
69938;DHT22;57248;47.320;15.998;2022-11-15T08:43:28;8.48;93.67
69938;DHT22;57248;47.320;15.998;2022-11-15T08:46:19;8.34;94.45
69938;DHT22;57248;47.320;15.998;2022-11-15T08:49:10;8.27;94.92
69938;DHT22;57248;47.320;15.998;2022-11-15T08:52:00;8.04;95.51
69938;DHT22;57248;47.320;15.998;2022-11-15T08:54:53;8.26;94.57
69938;DHT22;57248;47.320;15.998;2022-11-15T08:57:44;8.14;95.11
69938;DHT22;57248;47.320;15.998;2022-11-15T09:00:34;8.24;95.13
69938;DHT22;57248;47.320;15.998;2022-11-15T09:03:24;8.14;95.48
69938;DHT22;57248;47.320;15.998;2022-11-15T09:06:15;8.38;94.88
69938;DHT22;57248;47.320;15.998;2022-11-15T09:09:07;8.27;94.86
69938;DHT22;57248;47.320;15.998;2022-11-15T09:11:58;8.34;95.02
69938;DHT22;57248;47.320;15.998;2022-11-15T09:14:49;8.10;95.97
69938;DHT22;57248;47.320;15.998;2022-11-15T09:17:40;8.16;95.47
69938;DHT22;57248;47.320;15.998;2022-11-15T09:20:31;8.36;94.86
69938;DHT22;57248;47.320;15.998;2022-11-15T09:23:23;8.34;95.09
69938;DHT22;57248;47.320;15.998;2022-11-15T09:26:13;8.31;94.83
69938;DHT22;57248;47.320;15.998;2022-11-15T09:29:05;8.34;95.09
69938;DHT22;57248;47.320;15.998;2022-11-15T09:31:56;8.41;94.90
69938;DHT22;57248;47.320;15.998;2022-11-15T09:34:48;8.19;96.30
69938;DHT22;57248;47.320;15.998;2022-11-15T09:37:39;8.04;96.68
69938;DHT22;57248;47.320;15.998;2022-11-15T09:40:37;8.12;96.68
69938;DHT22;57248;47.320;15.998;2022-11-15T09:49:28;9.06;93.54
69938;DHT22;57248;47.320;15.998;2022-11-15T09:52:14;9.15;92.73
69938;DHT22;57248;47.320;15.998;2022-11-15T09:54:49;9.78;90.84
69938;DHT22;57248;47.320;15.998;2022-11-15T10:05:15;9.46;91.58
69938;DHT22;57248;47.320;15.998;2022-11-15T10:08:11;9.65;90.85
69938;DHT22;57248;47.320;15.998;2022-11-15T10:10:47;9.01;92.95
69938;DHT22;57248;47.320;15.998;2022-11-15T10:13:28;9.19;93.16
69938;DHT22;57248;47.320;15.998;2022-11-15T10:24:44;9.61;91.17
69938;DHT22;57248;47.320;15.998;2022-11-15T10:27:18;9.94;90.14
69938;DHT22;57248;47.320;15.998;2022-11-15T10:29:51;9.87;89.80
69938;DHT22;57248;47.320;15.998;2022-11-15T10:32:23;9.36;91.34
69938;DHT22;57248;47.320;15.998;2022-11-15T10:34:55;9.30;92.54
69938;DHT22;57248;47.320;15.998;2022-11-15T10:37:29;9.30;92.44
69938;DHT22;57248;47.320;15.998;2022-11-15T10:40:05;9.23;92.84
69938;DHT22;57248;47.320;15.998;2022-11-15T10:42:45;9.50;92.13
69938;DHT22;57248;47.320;15.998;2022-11-15T10:45:28;9.13;93.05
69938;DHT22;57248;47.320;15.998;2022-11-15T10:50:49;9.08;93.75
69938;DHT22;57248;47.320;15.998;2022-11-15T10:53:23;9.03;93.91
69938;DHT22;57248;47.320;15.998;2022-11-15T10:56:00;9.08;93.74
69938;DHT22;57248;47.320;15.998;2022-11-15T11:01:13;9.16;93.20
69938;DHT22;57248;47.320;15.998;2022-11-15T11:04:06;9.23;93.31
69938;DHT22;57248;47.320;15.998;2022-11-15T11:06:57;8.99;93.57
69938;DHT22;57248;47.320;15.998;2022-11-15T11:09:33;8.89;93.61
69938;DHT22;57248;47.320;15.998;2022-11-15T11:12:10;9.33;92.69
69938;DHT22;57248;47.320;15.998;2022-11-15T11:14:37;9.61;91.23
69938;DHT22;57248;47.320;15.998;2022-11-15T11:17:17;9.37;92.21
69938;DHT22;57248;47.320;15.998;2022-11-15T11:23:09;9.61;91.38
69938;DHT22;57248;47.320;15.998;2022-11-15T11:29:07;9.11;92.83
69938;DHT22;57248;47.320;15.998;2022-11-15T11:34:50;9.75;90.01
69938;DHT22;57248;47.320;15.998;2022-11-15T11:37:40;9.97;90.14
69938;DHT22;57248;47.320;15.998;2022-11-15T11:40:30;9.92;89.24
69938;DHT22;57248;47.320;15.998;2022-11-15T11:48:57;9.58;90.79
69938;DHT22;57248;47.320;15.998;2022-11-15T11:51:41;9.63;91.03
69938;DHT22;57248;47.320;15.998;2022-11-15T11:54:25;9.64;90.18
69938;DHT22;57248;47.320;15.998;2022-11-15T11:56:59;9.43;90.89
69938;DHT22;57248;47.320;15.998;2022-11-15T11:59:53;9.33;91.60
69938;DHT22;57248;47.320;15.998;2022-11-15T12:02:35;9.19;92.13
69938;DHT22;57248;47.320;15.998;2022-11-15T12:08:15;9.47;91.04
69938;DHT22;57248;47.320;15.998;2022-11-15T12:10:53;9.19;92.12
69938;DHT22;57248;47.320;15.998;2022-11-15T12:13:30;9.60;90.34
69938;DHT22;57248;47.320;15.998;2022-11-15T12:18:55;9.47;90.95
69938;DHT22;57248;47.320;15.998;2022-11-15T12:21:46;9.61;90.43
69938;DHT22;57248;47.320;15.998;2022-11-15T12:27:10;9.32;90.79
69938;DHT22;57248;47.320;15.998;2022-11-15T12:29:51;9.34;91.07
69938;DHT22;57248;47.320;15.998;2022-11-15T12:32:36;9.36;90.96
69938;DHT22;57248;47.320;15.998;2022-11-15T12:35:23;9.20;92.48
69938;DHT22;57248;47.320;15.998;2022-11-15T12:37:57;9.54;96.34
69938;DHT22;57248;47.320;15.998;2022-11-15T12:40:30;9.34;92.37
69938;DHT22;57248;47.320;15.998;2022-11-15T12:45:45;9.33;91.77
69938;DHT22;57248;47.320;15.998;2022-11-15T12:53:32;9.06;92.58
69938;DHT22;57248;47.320;15.998;2022-11-15T12:56:09;8.86;93.50
69938;DHT22;57248;47.320;15.998;2022-11-15T12:58:54;8.88;93.76
69938;DHT22;57248;47.320;15.998;2022-11-15T13:07:02;8.68;94.42
69938;DHT22;57248;47.320;15.998;2022-11-15T13:14:50;8.74;94.72
69938;DHT22;57248;47.320;15.998;2022-11-15T13:17:25;8.75;94.08
69938;DHT22;57248;47.320;15.998;2022-11-15T13:28:31;8.36;95.24
69938;DHT22;57248;47.320;15.998;2022-11-15T13:31:19;8.54;94.60
69938;DHT22;57248;47.320;15.998;2022-11-15T13:33:56;8.58;94.54
69938;DHT22;57248;47.320;15.998;2022-11-15T13:36:32;8.36;94.97
69938;DHT22;57248;47.320;15.998;2022-11-15T13:39:30;8.31;94.74
69938;DHT22;57248;47.320;15.998;2022-11-15T13:42:19;8.22;94.75
69938;DHT22;57248;47.320;15.998;2022-11-15T13:44:59;8.22;94.82
69938;DHT22;57248;47.320;15.998;2022-11-15T13:47:32;8.19;94.93
69938;DHT22;57248;47.320;15.998;2022-11-15T13:50:04;8.22;94.90
69938;DHT22;57248;47.320;15.998;2022-11-15T13:52:38;8.22;94.86
69938;DHT22;57248;47.320;15.998;2022-11-15T13:55:16;8.20;95.03
69938;DHT22;57248;47.320;15.998;2022-11-15T13:57:53;8.14;94.92
69938;DHT22;57248;47.320;15.998;2022-11-15T14:00:39;8.03;95.36
69938;DHT22;57248;47.320;15.998;2022-11-15T14:08:34;7.99;95.45
69938;DHT22;57248;47.320;15.998;2022-11-15T14:11:18;8.09;94.91
69938;DHT22;57248;47.320;15.998;2022-11-15T14:16:45;7.97;95.53
69938;DHT22;57248;47.320;15.998;2022-11-15T14:22:13;8.03;95.42
69938;DHT22;57248;47.320;15.998;2022-11-15T14:25:05;8.00;95.48
69938;DHT22;57248;47.320;15.998;2022-11-15T14:27:39;7.96;95.67
69938;DHT22;57248;47.320;15.998;2022-11-15T14:30:14;7.92;95.90
69938;DHT22;57248;47.320;15.998;2022-11-15T14:32:50;7.90;96.24
69938;DHT22;57248;47.320;15.998;2022-11-15T14:35:23;7.85;96.36
69938;DHT22;57248;47.320;15.998;2022-11-15T14:37:48;7.82;96.24
69938;DHT22;57248;47.320;15.998;2022-11-15T14:40:21;7.76;96.64
69938;DHT22;57248;47.320;15.998;2022-11-15T14:43:00;7.79;96.52
69938;DHT22;57248;47.320;15.998;2022-11-15T14:45:32;7.83;96.21
69938;DHT22;57248;47.320;15.998;2022-11-15T14:48:04;7.89;95.89
69938;DHT22;57248;47.320;15.998;2022-11-15T14:50:36;7.87;96.08
69938;DHT22;57248;47.320;15.998;2022-11-15T14:53:12;7.87;96.27
69938;DHT22;57248;47.320;15.998;2022-11-15T14:55:44;7.85;96.23
69938;DHT22;57248;47.320;15.998;2022-11-15T14:58:16;7.81;96.38
69938;DHT22;57248;47.320;15.998;2022-11-15T15:00:48;7.86;96.06
69938;DHT22;57248;47.320;15.998;2022-11-15T15:03:20;7.87;95.99
69938;DHT22;57248;47.320;15.998;2022-11-15T15:05:45;7.85;96.19
69938;DHT22;57248;47.320;15.998;2022-11-15T15:08:18;7.86;96.40
69938;DHT22;57248;47.320;15.998;2022-11-15T15:10:50;7.79;96.91
69938;DHT22;57248;47.320;15.998;2022-11-15T15:13:24;7.78;96.99
69938;DHT22;57248;47.320;15.998;2022-11-15T15:15:56;7.73;96.74
69938;DHT22;57248;47.320;15.998;2022-11-15T15:18:28;7.71;96.87
69938;DHT22;57248;47.320;15.998;2022-11-15T15:21:00;7.71;97.18
69938;DHT22;57248;47.320;15.998;2022-11-15T15:23:39;7.72;97.18
69938;DHT22;57248;47.320;15.998;2022-11-15T15:26:11;7.75;97.03
69938;DHT22;57248;47.320;15.998;2022-11-15T15:28:36;7.71;97.24
69938;DHT22;57248;47.320;15.998;2022-11-15T15:31:11;7.73;97.23
69938;DHT22;57248;47.320;15.998;2022-11-15T15:33:43;7.69;97.62
69938;DHT22;57248;47.320;15.998;2022-11-15T15:36:18;7.65;97.91
69938;DHT22;57248;47.320;15.998;2022-11-15T15:38:57;7.61;98.09
69938;DHT22;57248;47.320;15.998;2022-11-15T15:41:29;7.61;98.39
69938;DHT22;57248;47.320;15.998;2022-11-15T15:43:54;7.61;98.39
69938;DHT22;57248;47.320;15.998;2022-11-15T15:46:26;7.59;98.31
69938;DHT22;57248;47.320;15.998;2022-11-15T15:48:58;7.59;98.52
69938;DHT22;57248;47.320;15.998;2022-11-15T15:51:30;7.58;98.53
69938;DHT22;57248;47.320;15.998;2022-11-15T15:54:02;7.56;98.68
69938;DHT22;57248;47.320;15.998;2022-11-15T15:56:34;7.52;98.31
69938;DHT22;57248;47.320;15.998;2022-11-15T15:59:06;7.51;98.26
69938;DHT22;57248;47.320;15.998;2022-11-15T16:01:39;7.51;98.25
69938;DHT22;57248;47.320;15.998;2022-11-15T16:04:11;7.51;98.39
69938;DHT22;57248;47.320;15.998;2022-11-15T16:06:44;7.51;98.15
69938;DHT22;57248;47.320;15.998;2022-11-15T16:09:18;7.54;98.06
69938;DHT22;57248;47.320;15.998;2022-11-15T16:12:12;7.54;97.91
69938;DHT22;57248;47.320;15.998;2022-11-15T16:14:44;7.58;97.70
69938;DHT22;57248;47.320;15.998;2022-11-15T16:17:18;7.58;97.77
69938;DHT22;57248;47.320;15.998;2022-11-15T16:19:51;7.61;97.54
69938;DHT22;57248;47.320;15.998;2022-11-15T16:22:16;7.59;97.72
69938;DHT22;57248;47.320;15.998;2022-11-15T16:24:49;7.62;97.60
69938;DHT22;57248;47.320;15.998;2022-11-15T16:27:21;7.58;97.74
69938;DHT22;57248;47.320;15.998;2022-11-15T16:29:53;7.59;97.68
69938;DHT22;57248;47.320;15.998;2022-11-15T16:32:25;7.58;97.72
69938;DHT22;57248;47.320;15.998;2022-11-15T16:34:57;7.59;97.47
69938;DHT22;57248;47.320;15.998;2022-11-15T16:37:30;7.61;97.47
69938;DHT22;57248;47.320;15.998;2022-11-15T16:40:03;7.61;97.51
69938;DHT22;57248;47.320;15.998;2022-11-15T16:42:49;7.59;97.63
69938;DHT22;57248;47.320;15.998;2022-11-15T16:45:21;7.62;97.43
69938;DHT22;57248;47.320;15.998;2022-11-15T16:47:55;7.65;97.39
69938;DHT22;57248;47.320;15.998;2022-11-15T16:50:29;7.63;97.26
69938;DHT22;57248;47.320;15.998;2022-11-15T16:53:02;7.62;97.43
69938;DHT22;57248;47.320;15.998;2022-11-15T16:55:34;7.51;97.97
69938;DHT22;57248;47.320;15.998;2022-11-15T16:58:09;7.51;98.09
69938;DHT22;57248;47.320;15.998;2022-11-15T17:00:41;7.55;97.65
69938;DHT22;57248;47.320;15.998;2022-11-15T17:03:07;7.58;97.83
69938;DHT22;57248;47.320;15.998;2022-11-15T17:05:39;7.56;97.71
69938;DHT22;57248;47.320;15.998;2022-11-15T17:08:11;7.54;98.05
69938;DHT22;57248;47.320;15.998;2022-11-15T17:10:43;7.55;98.09
69938;DHT22;57248;47.320;15.998;2022-11-15T17:13:12;7.61;97.88
69938;DHT22;57248;47.320;15.998;2022-11-15T17:15:44;7.56;97.91
69938;DHT22;57248;47.320;15.998;2022-11-15T17:18:16;7.61;97.82
69938;DHT22;57248;47.320;15.998;2022-11-15T17:20:49;7.62;97.53
69938;DHT22;57248;47.320;15.998;2022-11-15T17:23:21;7.72;97.61
69938;DHT22;57248;47.320;15.998;2022-11-15T17:26:00;7.68;97.63
69938;DHT22;57248;47.320;15.998;2022-11-15T17:28:35;7.62;97.66
69938;DHT22;57248;47.320;15.998;2022-11-15T17:31:00;7.96;96.77
69938;DHT22;57248;47.320;15.998;2022-11-15T17:33:32;7.72;96.70
69938;DHT22;57248;47.320;15.998;2022-11-15T17:36:07;7.68;96.73
69938;DHT22;57248;47.320;15.998;2022-11-15T17:38:41;7.69;96.05
69938;DHT22;57248;47.320;15.998;2022-11-15T17:41:30;7.65;96.70
69938;DHT22;57248;47.320;15.998;2022-11-15T17:44:02;7.59;97.65
69938;DHT22;57248;47.320;15.998;2022-11-15T17:46:35;7.56;98.24
69938;DHT22;57248;47.320;15.998;2022-11-15T17:49:07;7.52;98.59
69938;DHT22;57248;47.320;15.998;2022-11-15T17:51:40;7.50;98.66
69938;DHT22;57248;47.320;15.998;2022-11-15T17:54:12;7.47;98.85
69938;DHT22;57248;47.320;15.998;2022-11-15T17:56:45;7.44;98.89
69938;DHT22;57248;47.320;15.998;2022-11-15T17:59:17;7.45;98.83
69938;DHT22;57248;47.320;15.998;2022-11-15T18:01:50;7.42;98.74
69938;DHT22;57248;47.320;15.998;2022-11-15T18:04:25;7.51;98.58
69938;DHT22;57248;47.320;15.998;2022-11-15T18:06:59;7.47;98.54
69938;DHT22;57248;47.320;15.998;2022-11-15T18:09:32;7.55;97.97
69938;DHT22;57248;47.320;15.998;2022-11-15T18:12:06;7.61;97.87
69938;DHT22;57248;47.320;15.998;2022-11-15T18:14:38;7.59;97.97
69938;DHT22;57248;47.320;15.998;2022-11-15T18:17:10;7.65;97.86
69938;DHT22;57248;47.320;15.998;2022-11-15T18:19:42;7.62;97.79
69938;DHT22;57248;47.320;15.998;2022-11-15T18:22:15;7.56;98.05
69938;DHT22;57248;47.320;15.998;2022-11-15T18:24:50;7.55;98.02
69938;DHT22;57248;47.320;15.998;2022-11-15T18:27:22;7.62;97.77
69938;DHT22;57248;47.320;15.998;2022-11-15T18:29:55;7.63;97.73
69938;DHT22;57248;47.320;15.998;2022-11-15T18:32:27;7.66;97.45
69938;DHT22;57248;47.320;15.998;2022-11-15T18:34:59;7.69;97.47
69938;DHT22;57248;47.320;15.998;2022-11-15T18:37:32;7.71;97.42
69938;DHT22;57248;47.320;15.998;2022-11-15T18:40:04;7.71;97.51
69938;DHT22;57248;47.320;15.998;2022-11-15T18:42:54;7.72;97.25
69938;DHT22;57248;47.320;15.998;2022-11-15T18:45:26;7.71;97.13
69938;DHT22;57248;47.320;15.998;2022-11-15T18:47:58;7.66;97.41
69938;DHT22;57248;47.320;15.998;2022-11-15T18:50:30;7.65;97.63
69938;DHT22;57248;47.320;15.998;2022-11-15T18:53:02;7.59;97.92
69938;DHT22;57248;47.320;15.998;2022-11-15T18:55:34;7.52;98.31
69938;DHT22;57248;47.320;15.998;2022-11-15T18:58:06;7.50;98.47
69938;DHT22;57248;47.320;15.998;2022-11-15T19:00:38;7.48;98.40
69938;DHT22;57248;47.320;15.998;2022-11-15T19:03:10;7.47;98.38
69938;DHT22;57248;47.320;15.998;2022-11-15T19:05:42;7.48;98.41
69938;DHT22;57248;47.320;15.998;2022-11-15T19:08:14;7.45;98.32
69938;DHT22;57248;47.320;15.998;2022-11-15T19:10:46;7.45;98.38
69938;DHT22;57248;47.320;15.998;2022-11-15T19:13:18;7.45;98.35
69938;DHT22;57248;47.320;15.998;2022-11-15T19:15:59;7.44;98.40
69938;DHT22;57248;47.320;15.998;2022-11-15T19:18:32;7.44;98.49
69938;DHT22;57248;47.320;15.998;2022-11-15T19:21:06;7.42;98.63